sensor_id;sensor_type;location;lat;lon;timestamp;P1;durP1;ratioP1;P2;durP2;ratioP2
22250;SDS011;59348;52.158;5.588;2022-11-15T00:02:15;54.28;;;26.38;;
22250;SDS011;59348;52.158;5.588;2022-11-15T00:04:42;49.58;;;25.30;;
22250;SDS011;59348;52.158;5.588;2022-11-15T00:07:10;54.72;;;26.55;;
22250;SDS011;59348;52.158;5.588;2022-11-15T00:09:37;49.92;;;25.73;;
22250;SDS011;59348;52.158;5.588;2022-11-15T00:12:06;56.17;;;27.13;;
22250;SDS011;59348;52.158;5.588;2022-11-15T00:14:33;50.92;;;26.85;;
22250;SDS011;59348;52.158;5.588;2022-11-15T00:17:00;55.78;;;27.85;;
22250;SDS011;59348;52.158;5.588;2022-11-15T00:19:27;56.78;;;27.77;;
22250;SDS011;59348;52.158;5.588;2022-11-15T00:21:55;58.60;;;28.38;;
22250;SDS011;59348;52.158;5.588;2022-11-15T00:24:22;60.42;;;28.20;;
22250;SDS011;59348;52.158;5.588;2022-11-15T00:26:49;58.45;;;28.90;;
22250;SDS011;59348;52.158;5.588;2022-11-15T00:29:18;64.70;;;29.75;;
22250;SDS011;59348;52.158;5.588;2022-11-15T00:31:45;70.00;;;31.17;;
22250;SDS011;59348;52.158;5.588;2022-11-15T00:34:12;66.10;;;30.73;;
22250;SDS011;59348;52.158;5.588;2022-11-15T00:36:39;72.07;;;31.90;;
22250;SDS011;59348;52.158;5.588;2022-11-15T00:39:07;74.07;;;31.10;;
22250;SDS011;59348;52.158;5.588;2022-11-15T00:41:34;71.07;;;31.67;;
22250;SDS011;59348;52.158;5.588;2022-11-15T00:44:01;70.70;;;32.75;;
22250;SDS011;59348;52.158;5.588;2022-11-15T00:46:30;73.82;;;32.47;;
22250;SDS011;59348;52.158;5.588;2022-11-15T00:48:58;78.05;;;32.05;;
22250;SDS011;59348;52.158;5.588;2022-11-15T00:51:25;83.65;;;34.55;;
22250;SDS011;59348;52.158;5.588;2022-11-15T00:53:52;80.97;;;33.13;;
22250;SDS011;59348;52.158;5.588;2022-11-15T00:56:19;84.50;;;33.80;;
22250;SDS011;59348;52.158;5.588;2022-11-15T00:58:47;82.47;;;34.97;;
22250;SDS011;59348;52.158;5.588;2022-11-15T01:01:14;80.30;;;34.42;;
22250;SDS011;59348;52.158;5.588;2022-11-15T01:03:43;87.03;;;35.05;;
22250;SDS011;59348;52.158;5.588;2022-11-15T01:06:10;95.65;;;36.33;;
22250;SDS011;59348;52.158;5.588;2022-11-15T01:08:38;83.82;;;36.35;;
22250;SDS011;59348;52.158;5.588;2022-11-15T01:11:06;73.90;;;33.38;;
22250;SDS011;59348;52.158;5.588;2022-11-15T01:13:34;86.80;;;35.22;;
22250;SDS011;59348;52.158;5.588;2022-11-15T01:16:05;79.38;;;33.63;;
22250;SDS011;59348;52.158;5.588;2022-11-15T01:18:33;74.40;;;33.53;;
22250;SDS011;59348;52.158;5.588;2022-11-15T01:21:05;75.88;;;34.15;;
22250;SDS011;59348;52.158;5.588;2022-11-15T01:23:32;69.70;;;33.65;;
22250;SDS011;59348;52.158;5.588;2022-11-15T01:26:00;63.25;;;32.53;;
22250;SDS011;59348;52.158;5.588;2022-11-15T01:28:29;68.47;;;32.63;;
22250;SDS011;59348;52.158;5.588;2022-11-15T01:30:57;75.05;;;32.60;;
22250;SDS011;59348;52.158;5.588;2022-11-15T01:33:24;66.85;;;32.53;;
22250;SDS011;59348;52.158;5.588;2022-11-15T01:35:52;65.95;;;31.98;;
22250;SDS011;59348;52.158;5.588;2022-11-15T01:38:20;66.78;;;32.22;;
22250;SDS011;59348;52.158;5.588;2022-11-15T01:40:48;66.38;;;33.00;;
22250;SDS011;59348;52.158;5.588;2022-11-15T01:43:19;75.10;;;33.58;;
22250;SDS011;59348;52.158;5.588;2022-11-15T01:45:46;66.43;;;32.78;;
22250;SDS011;59348;52.158;5.588;2022-11-15T01:48:16;66.15;;;32.25;;
22250;SDS011;59348;52.158;5.588;2022-11-15T01:50:43;64.50;;;31.67;;
22250;SDS011;59348;52.158;5.588;2022-11-15T01:53:11;59.38;;;32.00;;
22250;SDS011;59348;52.158;5.588;2022-11-15T01:55:40;66.82;;;31.80;;
22250;SDS011;59348;52.158;5.588;2022-11-15T01:58:07;66.03;;;31.15;;
22250;SDS011;59348;52.158;5.588;2022-11-15T02:00:35;62.67;;;32.22;;
22250;SDS011;59348;52.158;5.588;2022-11-15T02:03:02;63.17;;;32.17;;
22250;SDS011;59348;52.158;5.588;2022-11-15T02:05:30;67.30;;;32.42;;
22250;SDS011;59348;52.158;5.588;2022-11-15T02:07:57;66.25;;;32.08;;
22250;SDS011;59348;52.158;5.588;2022-11-15T02:10:27;67.85;;;33.67;;
22250;SDS011;59348;52.158;5.588;2022-11-15T02:12:56;64.82;;;33.20;;
22250;SDS011;59348;52.158;5.588;2022-11-15T02:15:24;71.32;;;34.50;;
22250;SDS011;59348;52.158;5.588;2022-11-15T02:17:57;65.72;;;33.38;;
22250;SDS011;59348;52.158;5.588;2022-11-15T02:20:30;74.90;;;34.88;;
22250;SDS011;59348;52.158;5.588;2022-11-15T02:23:13;70.20;;;34.55;;
22250;SDS011;59348;52.158;5.588;2022-11-15T02:25:49;72.38;;;34.40;;
22250;SDS011;59348;52.158;5.588;2022-11-15T02:28:28;68.25;;;34.25;;
22250;SDS011;59348;52.158;5.588;2022-11-15T02:31:00;67.15;;;34.10;;
22250;SDS011;59348;52.158;5.588;2022-11-15T02:33:34;72.88;;;34.78;;
22250;SDS011;59348;52.158;5.588;2022-11-15T02:36:05;62.67;;;33.00;;
22250;SDS011;59348;52.158;5.588;2022-11-15T02:38:34;68.82;;;34.10;;
22250;SDS011;59348;52.158;5.588;2022-11-15T02:41:06;67.40;;;33.92;;
22250;SDS011;59348;52.158;5.588;2022-11-15T02:43:36;68.53;;;35.42;;
22250;SDS011;59348;52.158;5.588;2022-11-15T02:46:20;69.60;;;34.47;;
22250;SDS011;59348;52.158;5.588;2022-11-15T02:49:10;64.47;;;33.35;;
22250;SDS011;59348;52.158;5.588;2022-11-15T02:51:38;63.67;;;34.13;;
22250;SDS011;59348;52.158;5.588;2022-11-15T02:54:06;62.58;;;33.60;;
22250;SDS011;59348;52.158;5.588;2022-11-15T02:56:34;64.18;;;34.00;;
22250;SDS011;59348;52.158;5.588;2022-11-15T02:59:05;59.35;;;33.58;;
22250;SDS011;59348;52.158;5.588;2022-11-15T03:01:41;64.38;;;31.88;;
22250;SDS011;59348;52.158;5.588;2022-11-15T03:04:13;59.50;;;32.47;;
22250;SDS011;59348;52.158;5.588;2022-11-15T03:06:45;56.80;;;32.00;;
22250;SDS011;59348;52.158;5.588;2022-11-15T03:09:16;58.10;;;31.88;;
22250;SDS011;59348;52.158;5.588;2022-11-15T03:11:46;59.13;;;32.40;;
22250;SDS011;59348;52.158;5.588;2022-11-15T03:14:18;58.55;;;32.50;;
22250;SDS011;59348;52.158;5.588;2022-11-15T03:16:49;58.45;;;33.28;;
22250;SDS011;59348;52.158;5.588;2022-11-15T03:19:19;55.72;;;30.95;;
22250;SDS011;59348;52.158;5.588;2022-11-15T03:21:48;51.83;;;30.08;;
22250;SDS011;59348;52.158;5.588;2022-11-15T03:24:16;51.63;;;31.83;;
22250;SDS011;59348;52.158;5.588;2022-11-15T03:26:44;56.88;;;31.00;;
22250;SDS011;59348;52.158;5.588;2022-11-15T03:29:15;54.10;;;32.10;;
22250;SDS011;59348;52.158;5.588;2022-11-15T03:31:44;51.03;;;31.35;;
22250;SDS011;59348;52.158;5.588;2022-11-15T03:34:15;60.35;;;32.00;;
22250;SDS011;59348;52.158;5.588;2022-11-15T03:36:46;55.38;;;31.25;;
22250;SDS011;59348;52.158;5.588;2022-11-15T03:39:14;56.95;;;30.90;;
22250;SDS011;59348;52.158;5.588;2022-11-15T03:41:42;50.88;;;30.50;;
22250;SDS011;59348;52.158;5.588;2022-11-15T03:44:12;51.13;;;31.30;;
22250;SDS011;59348;52.158;5.588;2022-11-15T03:46:42;54.55;;;31.15;;
22250;SDS011;59348;52.158;5.588;2022-11-15T03:49:12;52.67;;;30.73;;
22250;SDS011;59348;52.158;5.588;2022-11-15T03:51:43;50.67;;;30.40;;
22250;SDS011;59348;52.158;5.588;2022-11-15T03:54:11;52.47;;;30.90;;
22250;SDS011;59348;52.158;5.588;2022-11-15T03:56:39;53.47;;;30.80;;
22250;SDS011;59348;52.158;5.588;2022-11-15T03:59:06;49.28;;;30.55;;
22250;SDS011;59348;52.158;5.588;2022-11-15T04:01:33;53.75;;;30.77;;
22250;SDS011;59348;52.158;5.588;2022-11-15T04:04:00;53.97;;;31.80;;
22250;SDS011;59348;52.158;5.588;2022-11-15T04:06:28;55.85;;;32.25;;
22250;SDS011;59348;52.158;5.588;2022-11-15T04:08:56;55.80;;;32.05;;
22250;SDS011;59348;52.158;5.588;2022-11-15T04:11:24;54.50;;;32.33;;
22250;SDS011;59348;52.158;5.588;2022-11-15T04:13:51;54.38;;;32.47;;
22250;SDS011;59348;52.158;5.588;2022-11-15T04:16:19;57.58;;;31.35;;
22250;SDS011;59348;52.158;5.588;2022-11-15T04:18:46;60.45;;;33.33;;
22250;SDS011;59348;52.158;5.588;2022-11-15T04:21:33;56.10;;;32.75;;
22250;SDS011;59348;52.158;5.588;2022-11-15T04:24:16;62.45;;;32.17;;
22250;SDS011;59348;52.158;5.588;2022-11-15T04:26:43;60.97;;;32.58;;
22250;SDS011;59348;52.158;5.588;2022-11-15T04:29:10;53.08;;;32.28;;
22250;SDS011;59348;52.158;5.588;2022-11-15T04:31:51;56.55;;;33.25;;
22250;SDS011;59348;52.158;5.588;2022-11-15T04:34:19;59.53;;;33.20;;
22250;SDS011;59348;52.158;5.588;2022-11-15T04:36:46;54.85;;;33.20;;
22250;SDS011;59348;52.158;5.588;2022-11-15T04:39:28;53.60;;;32.15;;
22250;SDS011;59348;52.158;5.588;2022-11-15T04:41:56;56.17;;;32.60;;
22250;SDS011;59348;52.158;5.588;2022-11-15T04:44:23;51.47;;;32.15;;
22250;SDS011;59348;52.158;5.588;2022-11-15T04:46:50;50.22;;;31.27;;
22250;SDS011;59348;52.158;5.588;2022-11-15T04:49:17;51.88;;;31.88;;
22250;SDS011;59348;52.158;5.588;2022-11-15T04:51:45;53.35;;;31.33;;
22250;SDS011;59348;52.158;5.588;2022-11-15T04:54:12;51.50;;;32.22;;
22250;SDS011;59348;52.158;5.588;2022-11-15T04:56:41;49.42;;;29.98;;
22250;SDS011;59348;52.158;5.588;2022-11-15T04:59:08;47.28;;;29.67;;
22250;SDS011;59348;52.158;5.588;2022-11-15T05:01:35;45.15;;;29.60;;
22250;SDS011;59348;52.158;5.588;2022-11-15T05:04:02;51.50;;;30.00;;
22250;SDS011;59348;52.158;5.588;2022-11-15T05:06:44;49.90;;;29.35;;
22250;SDS011;59348;52.158;5.588;2022-11-15T05:09:11;44.78;;;29.38;;
22250;SDS011;59348;52.158;5.588;2022-11-15T05:11:40;45.60;;;30.45;;
22250;SDS011;59348;52.158;5.588;2022-11-15T05:14:08;47.58;;;30.25;;
22250;SDS011;59348;52.158;5.588;2022-11-15T05:16:35;47.88;;;29.58;;
22250;SDS011;59348;52.158;5.588;2022-11-15T05:19:03;47.45;;;30.58;;
22250;SDS011;59348;52.158;5.588;2022-11-15T05:21:30;46.17;;;29.77;;
22250;SDS011;59348;52.158;5.588;2022-11-15T05:23:58;50.78;;;31.15;;
22250;SDS011;59348;52.158;5.588;2022-11-15T05:26:26;54.13;;;30.92;;
22250;SDS011;59348;52.158;5.588;2022-11-15T05:28:55;45.55;;;30.40;;
22250;SDS011;59348;52.158;5.588;2022-11-15T05:31:23;49.10;;;29.85;;
22250;SDS011;59348;52.158;5.588;2022-11-15T05:33:50;46.75;;;29.80;;
22250;SDS011;59348;52.158;5.588;2022-11-15T05:36:20;43.20;;;28.88;;
22250;SDS011;59348;52.158;5.588;2022-11-15T05:38:48;47.13;;;29.85;;
22250;SDS011;59348;52.158;5.588;2022-11-15T05:41:16;48.17;;;29.88;;
22250;SDS011;59348;52.158;5.588;2022-11-15T05:43:45;45.05;;;29.83;;
22250;SDS011;59348;52.158;5.588;2022-11-15T05:46:14;44.58;;;29.90;;
22250;SDS011;59348;52.158;5.588;2022-11-15T05:48:43;46.50;;;29.50;;
22250;SDS011;59348;52.158;5.588;2022-11-15T05:51:12;49.78;;;30.02;;
22250;SDS011;59348;52.158;5.588;2022-11-15T05:53:39;47.17;;;30.42;;
22250;SDS011;59348;52.158;5.588;2022-11-15T05:56:07;49.50;;;31.48;;
22250;SDS011;59348;52.158;5.588;2022-11-15T05:58:35;47.13;;;30.00;;
22250;SDS011;59348;52.158;5.588;2022-11-15T06:01:03;47.67;;;29.20;;
22250;SDS011;59348;52.158;5.588;2022-11-15T06:03:32;49.70;;;28.63;;
22250;SDS011;59348;52.158;5.588;2022-11-15T06:05:59;45.40;;;28.92;;
22250;SDS011;59348;52.158;5.588;2022-11-15T06:08:27;44.65;;;29.60;;
22250;SDS011;59348;52.158;5.588;2022-11-15T06:10:54;45.53;;;29.90;;
22250;SDS011;59348;52.158;5.588;2022-11-15T06:13:21;43.92;;;29.58;;
22250;SDS011;59348;52.158;5.588;2022-11-15T06:15:49;47.10;;;30.00;;
22250;SDS011;59348;52.158;5.588;2022-11-15T06:18:16;47.28;;;30.25;;
22250;SDS011;59348;52.158;5.588;2022-11-15T06:20:44;47.63;;;30.85;;
22250;SDS011;59348;52.158;5.588;2022-11-15T06:23:12;47.28;;;30.42;;
22250;SDS011;59348;52.158;5.588;2022-11-15T06:25:39;48.05;;;28.85;;
22250;SDS011;59348;52.158;5.588;2022-11-15T06:28:06;46.00;;;29.33;;
22250;SDS011;59348;52.158;5.588;2022-11-15T06:30:33;52.35;;;30.25;;
22250;SDS011;59348;52.158;5.588;2022-11-15T06:33:01;49.75;;;30.33;;
22250;SDS011;59348;52.158;5.588;2022-11-15T06:35:29;45.88;;;28.83;;
22250;SDS011;59348;52.158;5.588;2022-11-15T06:38:03;45.72;;;29.35;;
22250;SDS011;59348;52.158;5.588;2022-11-15T06:40:32;45.85;;;28.67;;
22250;SDS011;59348;52.158;5.588;2022-11-15T06:43:00;46.90;;;30.15;;
22250;SDS011;59348;52.158;5.588;2022-11-15T06:45:27;47.25;;;28.67;;
22250;SDS011;59348;52.158;5.588;2022-11-15T06:47:54;45.83;;;29.80;;
22250;SDS011;59348;52.158;5.588;2022-11-15T06:50:22;47.60;;;29.38;;
22250;SDS011;59348;52.158;5.588;2022-11-15T06:52:49;44.88;;;28.77;;
22250;SDS011;59348;52.158;5.588;2022-11-15T06:55:18;48.58;;;29.48;;
22250;SDS011;59348;52.158;5.588;2022-11-15T06:57:46;48.83;;;29.98;;
22250;SDS011;59348;52.158;5.588;2022-11-15T07:00:14;50.60;;;28.83;;
22250;SDS011;59348;52.158;5.588;2022-11-15T07:02:42;46.30;;;29.33;;
22250;SDS011;59348;52.158;5.588;2022-11-15T07:05:10;45.05;;;28.42;;
22250;SDS011;59348;52.158;5.588;2022-11-15T07:07:37;45.38;;;28.55;;
22250;SDS011;59348;52.158;5.588;2022-11-15T07:10:05;43.47;;;28.83;;
22250;SDS011;59348;52.158;5.588;2022-11-15T07:12:33;43.67;;;29.00;;
22250;SDS011;59348;52.158;5.588;2022-11-15T07:15:01;40.75;;;27.83;;
22250;SDS011;59348;52.158;5.588;2022-11-15T07:17:28;41.20;;;28.05;;
22250;SDS011;59348;52.158;5.588;2022-11-15T07:19:55;44.92;;;28.58;;
22250;SDS011;59348;52.158;5.588;2022-11-15T07:22:22;52.63;;;28.52;;
22250;SDS011;59348;52.158;5.588;2022-11-15T07:24:50;43.05;;;27.30;;
22250;SDS011;59348;52.158;5.588;2022-11-15T07:27:17;40.17;;;27.95;;
22250;SDS011;59348;52.158;5.588;2022-11-15T07:29:46;41.70;;;27.92;;
22250;SDS011;59348;52.158;5.588;2022-11-15T07:32:13;42.35;;;27.75;;
22250;SDS011;59348;52.158;5.588;2022-11-15T07:34:40;41.97;;;27.90;;
22250;SDS011;59348;52.158;5.588;2022-11-15T07:37:07;41.08;;;27.70;;
22250;SDS011;59348;52.158;5.588;2022-11-15T07:39:35;43.08;;;28.55;;
22250;SDS011;59348;52.158;5.588;2022-11-15T07:42:02;48.72;;;29.15;;
22250;SDS011;59348;52.158;5.588;2022-11-15T07:44:43;40.38;;;27.00;;
22250;SDS011;59348;52.158;5.588;2022-11-15T07:47:12;48.72;;;27.42;;
22250;SDS011;59348;52.158;5.588;2022-11-15T07:49:39;48.40;;;27.38;;
22250;SDS011;59348;52.158;5.588;2022-11-15T07:52:07;41.28;;;27.50;;
22250;SDS011;59348;52.158;5.588;2022-11-15T07:54:34;42.20;;;27.33;;
22250;SDS011;59348;52.158;5.588;2022-11-15T07:57:01;46.30;;;26.83;;
22250;SDS011;59348;52.158;5.588;2022-11-15T07:59:28;45.38;;;27.42;;
22250;SDS011;59348;52.158;5.588;2022-11-15T08:01:56;40.97;;;25.58;;
22250;SDS011;59348;52.158;5.588;2022-11-15T08:04:24;37.50;;;25.60;;
22250;SDS011;59348;52.158;5.588;2022-11-15T08:06:52;38.95;;;26.25;;
22250;SDS011;59348;52.158;5.588;2022-11-15T08:09:19;37.25;;;24.90;;
22250;SDS011;59348;52.158;5.588;2022-11-15T08:11:46;39.88;;;25.67;;
22250;SDS011;59348;52.158;5.588;2022-11-15T08:14:13;42.75;;;25.58;;
22250;SDS011;59348;52.158;5.588;2022-11-15T08:16:41;36.97;;;24.52;;
22250;SDS011;59348;52.158;5.588;2022-11-15T08:19:08;38.63;;;25.02;;
22250;SDS011;59348;52.158;5.588;2022-11-15T08:21:36;39.58;;;24.33;;
22250;SDS011;59348;52.158;5.588;2022-11-15T08:24:04;35.60;;;23.58;;
22250;SDS011;59348;52.158;5.588;2022-11-15T08:26:31;36.20;;;23.67;;
22250;SDS011;59348;52.158;5.588;2022-11-15T08:28:58;35.88;;;23.08;;
22250;SDS011;59348;52.158;5.588;2022-11-15T08:31:26;34.67;;;21.98;;
22250;SDS011;59348;52.158;5.588;2022-11-15T08:33:53;36.30;;;21.52;;
22250;SDS011;59348;52.158;5.588;2022-11-15T08:36:20;34.63;;;21.77;;
22250;SDS011;59348;52.158;5.588;2022-11-15T08:38:49;32.08;;;21.42;;
22250;SDS011;59348;52.158;5.588;2022-11-15T08:41:16;35.53;;;22.02;;
22250;SDS011;59348;52.158;5.588;2022-11-15T08:43:45;31.73;;;20.17;;
22250;SDS011;59348;52.158;5.588;2022-11-15T08:46:13;31.10;;;20.15;;
22250;SDS011;59348;52.158;5.588;2022-11-15T08:48:40;31.13;;;20.60;;
22250;SDS011;59348;52.158;5.588;2022-11-15T08:51:07;32.10;;;21.25;;
22250;SDS011;59348;52.158;5.588;2022-11-15T08:53:35;31.52;;;19.77;;
22250;SDS011;59348;52.158;5.588;2022-11-15T08:56:03;34.45;;;20.58;;
22250;SDS011;59348;52.158;5.588;2022-11-15T08:58:33;29.08;;;19.85;;
22250;SDS011;59348;52.158;5.588;2022-11-15T09:01:00;31.63;;;19.20;;
22250;SDS011;59348;52.158;5.588;2022-11-15T09:03:28;29.13;;;17.52;;
22250;SDS011;59348;52.158;5.588;2022-11-15T09:05:55;29.23;;;18.08;;
22250;SDS011;59348;52.158;5.588;2022-11-15T09:08:22;25.58;;;17.00;;
22250;SDS011;59348;52.158;5.588;2022-11-15T09:10:50;26.63;;;17.27;;
22250;SDS011;59348;52.158;5.588;2022-11-15T09:13:18;27.85;;;17.50;;
22250;SDS011;59348;52.158;5.588;2022-11-15T09:15:46;25.40;;;17.75;;
22250;SDS011;59348;52.158;5.588;2022-11-15T09:18:13;29.98;;;17.98;;
22250;SDS011;59348;52.158;5.588;2022-11-15T09:20:40;27.48;;;17.75;;
22250;SDS011;59348;52.158;5.588;2022-11-15T09:23:08;26.83;;;17.20;;
22250;SDS011;59348;52.158;5.588;2022-11-15T09:25:35;25.15;;;15.77;;
22250;SDS011;59348;52.158;5.588;2022-11-15T09:28:05;27.35;;;15.75;;
22250;SDS011;59348;52.158;5.588;2022-11-15T09:30:34;26.48;;;16.15;;
22250;SDS011;59348;52.158;5.588;2022-11-15T09:33:05;21.65;;;15.70;;
22250;SDS011;59348;52.158;5.588;2022-11-15T09:35:33;26.58;;;15.57;;
22250;SDS011;59348;52.158;5.588;2022-11-15T09:38:01;23.58;;;16.02;;
22250;SDS011;59348;52.158;5.588;2022-11-15T09:40:29;24.30;;;16.27;;
22250;SDS011;59348;52.158;5.588;2022-11-15T09:43:00;26.65;;;16.33;;
22250;SDS011;59348;52.158;5.588;2022-11-15T09:45:30;26.48;;;17.15;;
22250;SDS011;59348;52.158;5.588;2022-11-15T09:48:06;23.75;;;16.25;;
22250;SDS011;59348;52.158;5.588;2022-11-15T09:50:37;27.60;;;16.50;;
22250;SDS011;59348;52.158;5.588;2022-11-15T09:53:08;23.77;;;16.45;;
22250;SDS011;59348;52.158;5.588;2022-11-15T09:55:50;22.00;;;15.80;;
22250;SDS011;59348;52.158;5.588;2022-11-15T09:58:20;24.85;;;16.27;;
22250;SDS011;59348;52.158;5.588;2022-11-15T10:00:50;23.58;;;15.75;;
22250;SDS011;59348;52.158;5.588;2022-11-15T10:03:22;24.83;;;15.63;;
22250;SDS011;59348;52.158;5.588;2022-11-15T10:05:51;22.75;;;15.02;;
22250;SDS011;59348;52.158;5.588;2022-11-15T10:08:23;20.75;;;14.80;;
22250;SDS011;59348;52.158;5.588;2022-11-15T10:10:53;23.05;;;14.07;;
22250;SDS011;59348;52.158;5.588;2022-11-15T10:13:22;20.25;;;13.13;;
22250;SDS011;59348;52.158;5.588;2022-11-15T10:15:50;15.48;;;11.40;;
22250;SDS011;59348;52.158;5.588;2022-11-15T10:18:23;18.55;;;11.75;;
22250;SDS011;59348;52.158;5.588;2022-11-15T10:20:59;16.92;;;10.75;;
22250;SDS011;59348;52.158;5.588;2022-11-15T10:23:27;14.43;;;9.52;;
22250;SDS011;59348;52.158;5.588;2022-11-15T10:25:55;14.82;;;9.30;;
22250;SDS011;59348;52.158;5.588;2022-11-15T10:28:25;15.10;;;9.10;;
22250;SDS011;59348;52.158;5.588;2022-11-15T10:30:53;12.65;;;8.18;;
22250;SDS011;59348;52.158;5.588;2022-11-15T10:33:27;11.55;;;7.57;;
22250;SDS011;59348;52.158;5.588;2022-11-15T10:38:49;9.25;;;6.60;;
22250;SDS011;59348;52.158;5.588;2022-11-15T10:41:18;10.15;;;6.20;;
22250;SDS011;59348;52.158;5.588;2022-11-15T10:43:46;11.35;;;5.60;;
22250;SDS011;59348;52.158;5.588;2022-11-15T10:46:28;7.20;;;4.55;;
22250;SDS011;59348;52.158;5.588;2022-11-15T10:48:59;7.53;;;5.15;;
22250;SDS011;59348;52.158;5.588;2022-11-15T10:51:40;10.30;;;4.70;;
22250;SDS011;59348;52.158;5.588;2022-11-15T10:54:08;8.70;;;4.40;;
22250;SDS011;59348;52.158;5.588;2022-11-15T10:56:38;6.30;;;3.90;;
22250;SDS011;59348;52.158;5.588;2022-11-15T10:59:12;8.45;;;4.10;;
22250;SDS011;59348;52.158;5.588;2022-11-15T11:01:45;5.32;;;3.90;;
22250;SDS011;59348;52.158;5.588;2022-11-15T11:04:14;8.07;;;4.00;;
22250;SDS011;59348;52.158;5.588;2022-11-15T11:06:49;8.88;;;4.20;;
22250;SDS011;59348;52.158;5.588;2022-11-15T11:09:21;5.55;;;4.10;;
22250;SDS011;59348;52.158;5.588;2022-11-15T11:11:50;7.40;;;4.47;;
22250;SDS011;59348;52.158;5.588;2022-11-15T11:14:19;6.72;;;4.15;;
22250;SDS011;59348;52.158;5.588;2022-11-15T11:16:47;6.03;;;4.43;;
22250;SDS011;59348;52.158;5.588;2022-11-15T11:19:22;4.97;;;4.45;;
22250;SDS011;59348;52.158;5.588;2022-11-15T11:21:55;7.85;;;4.72;;
22250;SDS011;59348;52.158;5.588;2022-11-15T11:24:27;7.90;;;4.80;;
22250;SDS011;59348;52.158;5.588;2022-11-15T11:26:59;7.18;;;5.05;;
22250;SDS011;59348;52.158;5.588;2022-11-15T11:29:36;6.43;;;3.78;;
22250;SDS011;59348;52.158;5.588;2022-11-15T11:32:08;7.93;;;4.22;;
22250;SDS011;59348;52.158;5.588;2022-11-15T11:34:45;6.28;;;3.92;;
22250;SDS011;59348;52.158;5.588;2022-11-15T11:37:17;6.68;;;3.65;;
22250;SDS011;59348;52.158;5.588;2022-11-15T11:39:51;6.85;;;3.70;;
22250;SDS011;59348;52.158;5.588;2022-11-15T11:42:24;5.68;;;3.03;;
22250;SDS011;59348;52.158;5.588;2022-11-15T11:44:54;8.25;;;3.15;;
22250;SDS011;59348;52.158;5.588;2022-11-15T11:47:28;5.60;;;2.80;;
22250;SDS011;59348;52.158;5.588;2022-11-15T11:50:00;3.38;;;2.55;;
22250;SDS011;59348;52.158;5.588;2022-11-15T11:52:29;6.50;;;2.90;;
22250;SDS011;59348;52.158;5.588;2022-11-15T11:55:00;4.85;;;2.42;;
22250;SDS011;59348;52.158;5.588;2022-11-15T11:57:30;3.47;;;2.40;;
22250;SDS011;59348;52.158;5.588;2022-11-15T12:00:01;6.95;;;2.65;;
22250;SDS011;59348;52.158;5.588;2022-11-15T12:02:30;5.50;;;2.40;;
22250;SDS011;59348;52.158;5.588;2022-11-15T12:05:03;7.45;;;2.65;;
22250;SDS011;59348;52.158;5.588;2022-11-15T12:07:31;4.68;;;2.75;;
22250;SDS011;59348;52.158;5.588;2022-11-15T12:10:01;4.70;;;2.60;;
22250;SDS011;59348;52.158;5.588;2022-11-15T12:12:30;7.50;;;2.38;;
22250;SDS011;59348;52.158;5.588;2022-11-15T12:15:00;9.02;;;2.55;;
22250;SDS011;59348;52.158;5.588;2022-11-15T12:17:29;8.85;;;2.53;;
22250;SDS011;59348;52.158;5.588;2022-11-15T12:19:57;5.38;;;2.22;;
22250;SDS011;59348;52.158;5.588;2022-11-15T12:22:28;5.20;;;2.25;;
22250;SDS011;59348;52.158;5.588;2022-11-15T12:24:59;4.75;;;2.20;;
22250;SDS011;59348;52.158;5.588;2022-11-15T12:27:30;4.28;;;2.20;;
22250;SDS011;59348;52.158;5.588;2022-11-15T12:30:00;6.32;;;2.40;;
22250;SDS011;59348;52.158;5.588;2022-11-15T12:32:29;6.80;;;2.10;;
22250;SDS011;59348;52.158;5.588;2022-11-15T12:34:58;4.35;;;1.90;;
22250;SDS011;59348;52.158;5.588;2022-11-15T12:42:59;5.35;;;2.00;;
22250;SDS011;59348;52.158;5.588;2022-11-15T12:45:28;4.13;;;1.80;;
22250;SDS011;59348;52.158;5.588;2022-11-15T12:47:57;6.78;;;2.22;;
22250;SDS011;59348;52.158;5.588;2022-11-15T12:53:29;5.60;;;1.70;;
22250;SDS011;59348;52.158;5.588;2022-11-15T12:56:08;7.10;;;1.70;;
22250;SDS011;59348;52.158;5.588;2022-11-15T12:58:42;5.68;;;1.60;;
22250;SDS011;59348;52.158;5.588;2022-11-15T13:01:12;5.70;;;1.60;;
22250;SDS011;59348;52.158;5.588;2022-11-15T13:06:41;5.82;;;1.80;;
22250;SDS011;59348;52.158;5.588;2022-11-15T13:11:51;6.93;;;1.90;;
22250;SDS011;59348;52.158;5.588;2022-11-15T13:17:02;3.97;;;1.60;;
22250;SDS011;59348;52.158;5.588;2022-11-15T13:19:29;4.07;;;1.63;;
22250;SDS011;59348;52.158;5.588;2022-11-15T13:21:57;7.15;;;1.80;;
22250;SDS011;59348;52.158;5.588;2022-11-15T13:24:38;4.82;;;1.70;;
22250;SDS011;59348;52.158;5.588;2022-11-15T13:27:09;4.57;;;1.65;;
22250;SDS011;59348;52.158;5.588;2022-11-15T13:29:37;5.88;;;1.67;;
22250;SDS011;59348;52.158;5.588;2022-11-15T13:32:11;3.33;;;1.50;;
22250;SDS011;59348;52.158;5.588;2022-11-15T13:34:42;5.30;;;1.88;;
22250;SDS011;59348;52.158;5.588;2022-11-15T13:37:12;7.32;;;1.65;;
22250;SDS011;59348;52.158;5.588;2022-11-15T13:39:40;4.15;;;1.33;;
22250;SDS011;59348;52.158;5.588;2022-11-15T13:42:10;5.60;;;1.55;;
22250;SDS011;59348;52.158;5.588;2022-11-15T13:44:41;4.10;;;1.35;;
22250;SDS011;59348;52.158;5.588;2022-11-15T13:47:22;3.85;;;1.45;;
22250;SDS011;59348;52.158;5.588;2022-11-15T13:49:52;3.15;;;1.63;;
22250;SDS011;59348;52.158;5.588;2022-11-15T13:52:19;3.38;;;1.45;;
22250;SDS011;59348;52.158;5.588;2022-11-15T13:54:50;6.32;;;1.40;;
22250;SDS011;59348;52.158;5.588;2022-11-15T13:57:20;3.97;;;1.40;;
22250;SDS011;59348;52.158;5.588;2022-11-15T13:59:49;6.32;;;1.30;;
22250;SDS011;59348;52.158;5.588;2022-11-15T14:02:18;3.03;;;1.45;;
22250;SDS011;59348;52.158;5.588;2022-11-15T14:04:49;7.80;;;1.77;;
22250;SDS011;59348;52.158;5.588;2022-11-15T14:07:18;5.60;;;1.55;;
22250;SDS011;59348;52.158;5.588;2022-11-15T14:09:46;5.00;;;1.50;;
22250;SDS011;59348;52.158;5.588;2022-11-15T14:12:23;4.53;;;1.50;;
22250;SDS011;59348;52.158;5.588;2022-11-15T14:14:51;6.35;;;1.40;;
22250;SDS011;59348;52.158;5.588;2022-11-15T14:17:19;3.67;;;1.50;;
22250;SDS011;59348;52.158;5.588;2022-11-15T14:19:49;4.75;;;1.48;;
22250;SDS011;59348;52.158;5.588;2022-11-15T14:22:18;4.30;;;1.40;;
22250;SDS011;59348;52.158;5.588;2022-11-15T14:24:47;5.72;;;1.30;;
22250;SDS011;59348;52.158;5.588;2022-11-15T14:27:31;5.97;;;1.58;;
22250;SDS011;59348;52.158;5.588;2022-11-15T14:29:58;4.70;;;1.35;;
22250;SDS011;59348;52.158;5.588;2022-11-15T14:32:26;5.90;;;1.40;;
22250;SDS011;59348;52.158;5.588;2022-11-15T14:34:56;3.20;;;1.00;;
22250;SDS011;59348;52.158;5.588;2022-11-15T14:37:25;4.13;;;1.17;;
22250;SDS011;59348;52.158;5.588;2022-11-15T14:39:52;2.67;;;1.17;;
22250;SDS011;59348;52.158;5.588;2022-11-15T14:42:21;3.95;;;1.20;;
22250;SDS011;59348;52.158;5.588;2022-11-15T14:44:48;3.47;;;1.23;;
22250;SDS011;59348;52.158;5.588;2022-11-15T14:47:15;5.38;;;0.98;;
22250;SDS011;59348;52.158;5.588;2022-11-15T14:49:43;3.63;;;1.10;;
22250;SDS011;59348;52.158;5.588;2022-11-15T14:52:22;3.78;;;1.10;;
22250;SDS011;59348;52.158;5.588;2022-11-15T14:54:50;5.15;;;1.02;;
22250;SDS011;59348;52.158;5.588;2022-11-15T14:57:18;4.05;;;1.30;;
22250;SDS011;59348;52.158;5.588;2022-11-15T14:59:45;2.60;;;1.15;;
22250;SDS011;59348;52.158;5.588;2022-11-15T15:02:14;6.90;;;1.10;;